Atmautluak, Alaska
Current Conditions -  °F | °C
As of 12:53 PM on Friday 31 Oct 2014 (Local Time) from PABE Reporting Station
Broken Clouds Broken Clouds  
Wind Chill: -3°   Ceiling: 21000
Heat Index: 14°   Visibility: 10mi
Dew Point: 10°   Wind: 20mph
Humidity: 84%   Direction: 30°NNE
Pressure: 29.11"   Gusts: 29mph
Location:  60.7494°N, 161.727°W
Report Text: PABE 312053Z 03017G25KT 10SM BKN210 M10/M12 A2911 RMK AO2 SLP859 T11001122 56018
Loading
Personal Weather Stations






























Interactive Weather Map
Tropical Storm Tracking
New forecast layout! Learn more

10-Day Weather Forecast

Advertisements
Track Severe Weather on mobile